Time;durP1;ratioP1;P1;durP2;ratioP2;P2;SDS_P1;SDS_P2;PMS_P1;PMS_P2;Temp;Humidity;BMP_temperature;BMP_pressure;BME280_temperature;BME280_humidity;BME280_pressure;Samples;Min_cycle;Max_cycle;Signal;HPM_P1;HPM_P2
2023/10/27 00:02:15;;;;;;;0.65;0.30;;;;;;;;;;6180326;23;20009;-90
2023/10/27 00:04:44;;;;;;;0.05;0.00;;;;;;;;;;6180740;23;20009;-89
2023/10/27 00:07:10;;;;;;;0.82;0.28;;;;;;;;;;6179980;23;20001;-90
2023/10/27 00:09:37;;;;;;;0.20;0.10;;;;;;;;;;6180835;23;20048;-90
2023/10/27 00:12:03;;;;;;;0.57;0.45;;;;;;;;;;6179816;23;20009;-90
2023/10/27 00:14:37;;;;;;;0.85;0.13;;;;;;;;;;6180663;23;20024;-89
2023/10/27 00:17:04;;;;;;;1.60;0.52;;;;;;;;;;6180049;23;20075;-90
2023/10/27 00:19:30;;;;;;;0.80;0.20;;;;;;;;;;6179977;23;20348;-90
2023/10/27 00:21:58;;;;;;;0.40;0.30;;;;;;;;;;6180544;23;20084;-90
2023/10/27 00:27:35;;;;;;;0.10;0.10;;;;;;;;;;6182078;22;20034;-90
2023/10/27 00:30:06;;;;;;;1.70;0.20;;;;;;;;;;6219952;23;20016;-92
2023/10/27 00:32:36;;;;;;;0.30;0.22;;;;;;;;;;6220722;23;20305;-92
2023/10/27 00:35:05;;;;;;;3.67;0.10;;;;;;;;;;6220958;23;20358;-93
2023/10/27 00:38:06;;;;;;;3.92;0.77;;;;;;;;;;6220221;23;20004;-92
2023/10/27 00:41:00;;;;;;;1.17;0.20;;;;;;;;;;6220220;23;20091;-92
2023/10/27 00:46:30;;;;;;;0.30;0.20;;;;;;;;;;6246456;23;20011;-92
2023/10/27 00:49:08;;;;;;;0.47;0.32;;;;;;;;;;6218819;23;20008;-92
2023/10/27 00:51:50;;;;;;;;;;;;;;;;;;;;;
2023/10/27 00:54:24;;;;;;;0.08;0.03;;;;;;;;;;6246499;23;20467;-91
2023/10/27 00:56:50;;;;;;;0.65;0.43;;;;;;;;;;6219454;23;20016;-92
2023/10/27 00:59:27;;;;;;;0.15;0.10;;;;;;;;;;6219412;23;20563;-92
2023/10/27 01:04:59;;;;;;;0.00;0.00;;;;;;;;;;6248974;23;20028;-92
2023/10/27 01:07:40;;;;;;;0.40;0.20;;;;;;;;;;6221460;23;20063;-92
2023/10/27 01:10:06;;;;;;;0.00;0.00;;;;;;;;;;6221233;23;20019;-91
2023/10/27 01:12:33;;;;;;;0.40;0.15;;;;;;;;;;6221473;23;20008;-93
2023/10/27 01:15:07;;;;;;;0.17;0.15;;;;;;;;;;6219990;23;20431;-92
2023/10/27 01:17:35;;;;;;;1.05;0.25;;;;;;;;;;6221446;23;20008;-92
2023/10/27 01:20:01;;;;;;;0.17;0.10;;;;;;;;;;6220462;23;20091;-93
2023/10/27 01:22:30;;;;;;;1.55;0.50;;;;;;;;;;6222466;23;20424;-92
2023/10/27 01:24:59;;;;;;;0.30;0.15;;;;;;;;;;6222613;23;20004;-92
2023/10/27 01:27:28;;;;;;;0.45;0.20;;;;;;;;;;6221936;23;20363;-92
2023/10/27 01:30:02;;;;;;;0.32;0.20;;;;;;;;;;6216597;23;20073;-92
2023/10/27 01:32:33;;;;;;;0.55;0.03;;;;;;;;;;6216703;23;20427;-93
2023/10/27 01:35:02;;;;;;;0.10;0.05;;;;;;;;;;6217163;23;20004;-93
2023/10/27 01:37:28;;;;;;;0.75;0.10;;;;;;;;;;6216899;23;20055;-93
2023/10/27 01:39:57;;;;;;;2.78;0.93;;;;;;;;;;6217700;23;20005;-92
2023/10/27 01:42:26;;;;;;;0.50;0.20;;;;;;;;;;6219584;23;20009;-93
2023/10/27 01:47:47;;;;;;;0.10;0.10;;;;;;;;;;6218517;23;20092;-94
2023/10/27 01:50:19;;;;;;;1.02;0.35;;;;;;;;;;6216781;23;20036;-93
2023/10/27 01:52:51;;;;;;;4.72;0.55;;;;;;;;;;6216377;23;20085;-92
2023/10/27 01:55:24;;;;;;;0.80;0.38;;;;;;;;;;6215802;23;20012;-91
2023/10/27 01:57:57;;;;;;;0.38;0.00;;;;;;;;;;6213070;23;20527;-93
2023/10/27 02:00:26;;;;;;;0.00;0.00;;;;;;;;;;6215036;23;20032;-92
2023/10/27 02:02:52;;;;;;;0.00;0.00;;;;;;;;;;6214713;23;20076;-93
2023/10/27 02:05:18;;;;;;;0.00;0.00;;;;;;;;;;6216559;23;20009;-93
2023/10/27 02:07:44;;;;;;;1.73;0.30;;;;;;;;;;6215757;23;20355;-92
2023/10/27 02:10:11;;;;;;;0.10;0.10;;;;;;;;;;6215917;23;20320;-92
2023/10/27 02:12:40;;;;;;;0.05;0.00;;;;;;;;;;6216182;23;20412;-93
2023/10/27 02:15:18;;;;;;;0.75;0.10;;;;;;;;;;6217067;23;20083;-94
2023/10/27 02:18:07;;;;;;;0.00;0.00;;;;;;;;;;6217453;23;20008;-93
2023/10/27 02:20:36;;;;;;;0.00;0.00;;;;;;;;;;6217240;23;20020;-94
2023/10/27 02:23:04;;;;;;;0.00;0.00;;;;;;;;;;6214564;23;20092;-93
2023/10/27 02:25:32;;;;;;;0.00;0.00;;;;;;;;;;6220483;23;20005;-92
2023/10/27 02:27:58;;;;;;;0.00;0.00;;;;;;;;;;6220660;23;20032;-93
2023/10/27 02:30:25;;;;;;;0.20;0.00;;;;;;;;;;6221935;23;20012;-93
2023/10/27 02:32:54;;;;;;;0.40;0.10;;;;;;;;;;6222642;23;20004;-93
2023/10/27 02:35:20;;;;;;;0.10;0.10;;;;;;;;;;6221299;23;20012;-93
2023/10/27 02:37:49;;;;;;;0.00;0.00;;;;;;;;;;6221389;23;20080;-93
2023/10/27 02:40:15;;;;;;;0.00;0.00;;;;;;;;;;6221717;23;20020;-93
2023/10/27 02:42:41;;;;;;;0.10;0.00;;;;;;;;;;6221344;23;20045;-92
2023/10/27 02:45:08;;;;;;;3.40;0.40;;;;;;;;;;6221717;23;20424;-92
2023/10/27 02:47:34;;;;;;;0.03;0.03;;;;;;;;;;6222944;23;20004;-93
2023/10/27 02:50:01;;;;;;;0.40;0.13;;;;;;;;;;6221723;23;20012;-92
2023/10/27 02:52:27;;;;;;;0.10;0.00;;;;;;;;;;6222296;23;20004;-93
2023/10/27 02:54:58;;;;;;;0.10;0.10;;;;;;;;;;6221827;23;20059;-93
2023/10/27 02:57:24;;;;;;;0.00;0.00;;;;;;;;;;6222625;23;20004;-93
2023/10/27 02:59:50;;;;;;;1.77;0.77;;;;;;;;;;6220132;23;20004;-92
2023/10/27 03:02:18;;;;;;;0.05;0.00;;;;;;;;;;6221120;23;20128;-90
2023/10/27 03:04:44;;;;;;;0.00;0.00;;;;;;;;;;6221168;23;20008;-90
2023/10/27 03:07:10;;;;;;;0.93;0.20;;;;;;;;;;6220572;23;20000;-91
2023/10/27 03:09:36;;;;;;;0.52;0.15;;;;;;;;;;6221094;23;20043;-92
2023/10/27 03:12:02;;;;;;;0.00;0.00;;;;;;;;;;6222061;23;20166;-89
2023/10/27 03:14:28;;;;;;;0.10;0.00;;;;;;;;;;6220834;23;20511;-88
2023/10/27 03:16:54;;;;;;;0.75;0.30;;;;;;;;;;6218786;23;20008;-90
2023/10/27 03:19:20;;;;;;;5.82;0.20;;;;;;;;;;6220457;23;20008;-91
2023/10/27 03:21:46;;;;;;;0.10;0.00;;;;;;;;;;6221558;23;20008;-91
2023/10/27 03:24:13;;;;;;;0.00;0.00;;;;;;;;;;6220970;23;20011;-89
2023/10/27 03:26:44;;;;;;;0.00;0.00;;;;;;;;;;6220825;23;20004;-92
2023/10/27 03:29:10;;;;;;;0.00;0.00;;;;;;;;;;6219675;23;20054;-91
2023/10/27 03:31:36;;;;;;;0.22;0.10;;;;;;;;;;6220095;23;20286;-92
2023/10/27 03:34:05;;;;;;;0.00;0.00;;;;;;;;;;6218162;23;20019;-92
2023/10/27 03:36:31;;;;;;;0.35;0.15;;;;;;;;;;6216585;23;20023;-91
2023/10/27 03:38:57;;;;;;;0.20;0.10;;;;;;;;;;6217076;23;20012;-91
2023/10/27 03:41:28;;;;;;;0.20;0.10;;;;;;;;;;6215469;23;20039;-90
2023/10/27 03:43:56;;;;;;;0.22;0.20;;;;;;;;;;6215383;23;20035;-90
2023/10/27 03:46:22;;;;;;;0.20;0.15;;;;;;;;;;6215757;23;20012;-92
2023/10/27 03:48:51;;;;;;;3.10;0.25;;;;;;;;;;6218240;23;20031;-92
2023/10/27 03:51:17;;;;;;;0.05;0.05;;;;;;;;;;6217448;23;20019;-91
2023/10/27 03:53:49;;;;;;;5.28;1.00;;;;;;;;;;6216781;23;20067;-93
2023/10/27 03:56:18;;;;;;;0.00;0.00;;;;;;;;;;6216898;23;20432;-93
2023/10/27 03:58:44;;;;;;;0.05;0.00;;;;;;;;;;6217709;23;20051;-92
2023/10/27 04:01:10;;;;;;;1.20;0.15;;;;;;;;;;6216757;23;20439;-92
2023/10/27 04:03:36;;;;;;;0.00;0.00;;;;;;;;;;6216245;23;20015;-91
2023/10/27 04:06:03;;;;;;;0.00;0.00;;;;;;;;;;6216203;23;20056;-91
2023/10/27 04:08:29;;;;;;;0.28;0.15;;;;;;;;;;6217588;23;20030;-90
2023/10/27 04:11:04;;;;;;;0.00;0.00;;;;;;;;;;6216233;23;20012;-90
2023/10/27 04:13:36;;;;;;;3.45;0.50;;;;;;;;;;6215362;23;20047;-91
2023/10/27 04:16:07;;;;;;;0.40;0.15;;;;;;;;;;6215695;23;20008;-92
2023/10/27 04:18:36;;;;;;;4.43;1.35;;;;;;;;;;6215342;23;20020;-92
2023/10/27 04:21:03;;;;;;;0.90;0.40;;;;;;;;;;6215775;23;20084;-92
2023/10/27 04:23:31;;;;;;;0.35;0.20;;;;;;;;;;6215561;23;20337;-91
2023/10/27 04:25:57;;;;;;;0.73;0.50;;;;;;;;;;6216889;23;20363;-92
2023/10/27 04:28:29;;;;;;;1.10;0.55;;;;;;;;;;6217578;23;20512;-91
2023/10/27 04:30:55;;;;;;;0.47;0.20;;;;;;;;;;6216764;23;20019;-91
2023/10/27 04:33:22;;;;;;;0.47;0.28;;;;;;;;;;6216519;23;20008;-90
2023/10/27 04:36:12;;;;;;;0.10;0.00;;;;;;;;;;6216137;23;20020;-91
2023/10/27 04:38:42;;;;;;;0.10;0.10;;;;;;;;;;6216838;23;20012;-92
2023/10/27 04:44:03;;;;;;;0.10;0.10;;;;;;;;;;6243011;23;20047;-92
2023/10/27 04:46:32;;;;;;;0.10;0.10;;;;;;;;;;6216135;23;20008;-92
2023/10/27 04:49:05;;;;;;;0.20;0.15;;;;;;;;;;6214593;23;20008;-91
2023/10/27 04:51:31;;;;;;;0.68;0.10;;;;;;;;;;6216266;23;20012;-92
2023/10/27 04:54:03;;;;;;;0.50;0.30;;;;;;;;;;6215593;23;20135;-92
2023/10/27 04:56:29;;;;;;;0.00;0.00;;;;;;;;;;6216069;23;20050;-93
2023/10/27 04:58:55;;;;;;;1.67;0.28;;;;;;;;;;6215659;23;20024;-91
2023/10/27 05:01:25;;;;;;;1.88;0.35;;;;;;;;;;6215352;23;20012;-91
2023/10/27 05:03:51;;;;;;;0.65;0.20;;;;;;;;;;6215467;23;20415;-91
2023/10/27 05:06:20;;;;;;;0.73;0.52;;;;;;;;;;6215294;23;20035;-89
2023/10/27 05:08:52;;;;;;;3.22;1.05;;;;;;;;;;6214232;23;20312;-91
2023/10/27 05:11:23;;;;;;;2.13;0.80;;;;;;;;;;6216123;23;20008;-91
2023/10/27 05:14:00;;;;;;;1.90;0.85;;;;;;;;;;6215360;23;20012;-93
2023/10/27 05:16:35;;;;;;;1.17;0.52;;;;;;;;;;6214031;23;20167;-92
2023/10/27 05:19:04;;;;;;;2.13;0.93;;;;;;;;;;6217451;23;20019;-91
2023/10/27 05:21:33;;;;;;;5.70;1.70;;;;;;;;;;6219140;23;20102;-93
2023/10/27 05:24:01;;;;;;;5.57;2.63;;;;;;;;;;6221392;23;20014;-92
2023/10/27 05:26:27;;;;;;;6.15;2.67;;;;;;;;;;6223276;23;20009;-92
2023/10/27 05:29:10;;;;;;;7.20;3.15;;;;;;;;;;6221961;23;20028;-92
2023/10/27 05:31:50;;;;;;;6.45;3.47;;;;;;;;;;6220723;23;20012;-92
2023/10/27 05:34:34;;;;;;;5.35;2.88;;;;;;;;;;6182615;23;20013;-92
2023/10/27 05:37:00;;;;;;;6.28;3.00;;;;;;;;;;6179906;23;20021;-91
2023/10/27 05:39:26;;;;;;;2.35;1.20;;;;;;;;;;6178661;23;20019;-90
2023/10/27 05:41:52;;;;;;;1.80;0.93;;;;;;;;;;6178389;23;20396;-90
2023/10/27 05:44:18;;;;;;;4.35;1.90;;;;;;;;;;6181714;23;20012;-90
2023/10/27 05:46:44;;;;;;;2.33;0.70;;;;;;;;;;6181684;23;20310;-90
2023/10/27 05:49:11;;;;;;;2.38;1.10;;;;;;;;;;6180854;23;20016;-90
2023/10/27 05:51:37;;;;;;;8.75;2.30;;;;;;;;;;6181744;23;20125;-91
2023/10/27 05:54:04;;;;;;;4.50;2.33;;;;;;;;;;6184106;23;20021;-92
2023/10/27 05:56:30;;;;;;;2.88;1.30;;;;;;;;;;6181641;23;20025;-91
2023/10/27 05:58:56;;;;;;;2.55;1.33;;;;;;;;;;6216110;23;20008;-90
2023/10/27 06:01:23;;;;;;;2.53;1.70;;;;;;;;;;6217132;23;20454;-91
2023/10/27 06:03:49;;;;;;;1.38;0.75;;;;;;;;;;6217316;23;20087;-91
2023/10/27 06:06:15;;;;;;;2.72;0.82;;;;;;;;;;6219090;23;20015;-90
2023/10/27 06:08:44;;;;;;;2.22;0.85;;;;;;;;;;6219107;23;20000;-90
2023/10/27 06:11:16;;;;;;;1.20;0.68;;;;;;;;;;6218350;23;20008;-91
2023/10/27 06:13:42;;;;;;;0.55;0.40;;;;;;;;;;6217734;23;20009;-90
2023/10/27 06:16:08;;;;;;;0.30;0.10;;;;;;;;;;6216541;23;20011;-91
2023/10/27 06:18:34;;;;;;;1.70;0.55;;;;;;;;;;6216471;23;20004;-91
2023/10/27 06:21:01;;;;;;;0.52;0.40;;;;;;;;;;6217116;23;20004;-91
2023/10/27 06:23:27;;;;;;;0.77;0.30;;;;;;;;;;6216797;23;20016;-91
2023/10/27 06:25:53;;;;;;;0.32;0.10;;;;;;;;;;6216003;23;20142;-90
2023/10/27 06:28:19;;;;;;;0.60;0.30;;;;;;;;;;6216765;23;20028;-89
2023/10/27 06:30:45;;;;;;;4.10;1.10;;;;;;;;;;6216305;23;20030;-89
2023/10/27 06:33:11;;;;;;;1.52;0.70;;;;;;;;;;6216480;23;20721;-90
2023/10/27 06:35:38;;;;;;;0.47;0.45;;;;;;;;;;6215777;23;20046;-90
2023/10/27 06:38:04;;;;;;;1.48;0.60;;;;;;;;;;6216199;23;20016;-89
2023/10/27 06:40:30;;;;;;;0.85;0.47;;;;;;;;;;6216484;23;20458;-90
2023/10/27 06:42:56;;;;;;;2.08;0.93;;;;;;;;;;6220449;23;20035;-90
2023/10/27 06:45:22;;;;;;;1.17;0.50;;;;;;;;;;6241845;23;20434;-90
2023/10/27 06:47:48;;;;;;;0.40;0.20;;;;;;;;;;6241843;23;20025;-90
2023/10/27 06:50:15;;;;;;;2.42;0.85;;;;;;;;;;6242777;23;20416;-91
2023/10/27 06:52:41;;;;;;;1.17;0.40;;;;;;;;;;6243367;23;20099;-90
2023/10/27 06:55:08;;;;;;;1.35;0.60;;;;;;;;;;6242679;23;20031;-90
2023/10/27 06:57:34;;;;;;;1.05;0.50;;;;;;;;;;6241839;23;20019;-90
2023/10/27 07:00:01;;;;;;;0.63;0.52;;;;;;;;;;6241319;23;20008;-90
2023/10/27 07:02:27;;;;;;;0.63;0.60;;;;;;;;;;6241215;23;20095;-89
2023/10/27 07:04:53;;;;;;;0.60;0.43;;;;;;;;;;6240893;23;20044;-90
2023/10/27 07:07:19;;;;;;;0.70;0.30;;;;;;;;;;6241190;23;20051;-90
2023/10/27 07:09:45;;;;;;;1.88;0.95;;;;;;;;;;6241337;23;20074;-90
2023/10/27 07:12:11;;;;;;;1.30;0.80;;;;;;;;;;6241125;23;20419;-91
2023/10/27 07:14:37;;;;;;;0.85;0.30;;;;;;;;;;6241087;23;20062;-89
2023/10/27 07:17:04;;;;;;;0.17;0.17;;;;;;;;;;6240541;23;20016;-90
2023/10/27 07:19:33;;;;;;;0.90;0.57;;;;;;;;;;6241147;23;20690;-89
2023/10/27 07:22:00;;;;;;;0.03;0.03;;;;;;;;;;6240444;23;20363;-88
2023/10/27 07:24:26;;;;;;;0.30;0.20;;;;;;;;;;6240941;23;20020;-90
2023/10/27 07:26:52;;;;;;;0.30;0.00;;;;;;;;;;6240536;23;20552;-88
2023/10/27 07:29:18;;;;;;;;;;;;;;;;;;6236465;23;20020;-89
2023/10/27 07:31:44;;;;;;;;;;;;;;;;;;6210523;23;19911;-88
2023/10/27 07:34:10;;;;;;;0.10;0.10;;;;;;;;;;6210176;23;20232;-89
2023/10/27 07:36:36;;;;;;;0.82;0.60;;;;;;;;;;6235285;23;20040;-89
2023/10/27 07:39:02;;;;;;;1.98;0.60;;;;;;;;;;6235451;23;20696;-88
2023/10/27 07:41:28;;;;;;;1.05;0.40;;;;;;;;;;6234952;23;20456;-89
2023/10/27 07:43:54;;;;;;;1.27;0.60;;;;;;;;;;6235726;23;20016;-88
2023/10/27 07:46:20;;;;;;;0.88;0.50;;;;;;;;;;6235317;23;20012;-88
2023/10/27 07:48:46;;;;;;;2.13;0.50;;;;;;;;;;6235076;23;20009;-88
2023/10/27 07:51:12;;;;;;;0.75;0.22;;;;;;;;;;6234796;23;20009;-88
2023/10/27 07:53:38;;;;;;;1.15;0.65;;;;;;;;;;6235099;23;20013;-88
2023/10/27 07:56:04;;;;;;;0.50;0.30;;;;;;;;;;6234881;23;20107;-88
2023/10/27 07:58:30;;;;;;;0.55;0.55;;;;;;;;;;6235419;23;20020;-88
2023/10/27 08:00:56;;;;;;;0.85;0.43;;;;;;;;;;6235022;23;20455;-88
2023/10/27 08:03:22;;;;;;;0.32;0.25;;;;;;;;;;6211963;23;20087;-88
2023/10/27 08:05:49;;;;;;;1.33;0.20;;;;;;;;;;6235701;23;20044;-88
2023/10/27 08:08:15;;;;;;;0.95;0.55;;;;;;;;;;6235785;23;20013;-88
2023/10/27 08:10:44;;;;;;;1.02;0.57;;;;;;;;;;6234641;23;20441;-88
2023/10/27 08:13:10;;;;;;;1.30;0.40;;;;;;;;;;6235742;23;20397;-88
2023/10/27 08:15:37;;;;;;;1.08;0.60;;;;;;;;;;6235678;23;20009;-88
2023/10/27 08:18:03;;;;;;;0.52;0.32;;;;;;;;;;6236151;23;20024;-87
2023/10/27 08:20:29;;;;;;;0.30;0.20;;;;;;;;;;6235194;23;20019;-89
2023/10/27 08:22:56;;;;;;;0.80;0.57;;;;;;;;;;6185302;23;20083;-88
2023/10/27 08:25:22;;;;;;;1.13;0.50;;;;;;;;;;6235445;23;20012;-88
2023/10/27 08:27:52;;;;;;;1.63;0.30;;;;;;;;;;6237902;23;20016;-89
2023/10/27 08:30:18;;;;;;;0.30;0.20;;;;;;;;;;6241320;23;20125;-89
2023/10/27 08:32:44;;;;;;;1.40;0.47;;;;;;;;;;6240793;23;20383;-88
2023/10/27 08:35:10;;;;;;;0.75;0.47;;;;;;;;;;6239938;23;20443;-90
2023/10/27 08:37:36;;;;;;;0.70;0.13;;;;;;;;;;6240742;23;20018;-88
2023/10/27 08:40:03;;;;;;;1.27;0.25;;;;;;;;;;6239571;23;20011;-88
2023/10/27 08:42:33;;;;;;;0.90;0.60;;;;;;;;;;6240424;23;20012;-88
2023/10/27 08:44:59;;;;;;;0.80;0.45;;;;;;;;;;6240390;23;20004;-88
2023/10/27 08:47:30;;;;;;;0.10;0.00;;;;;;;;;;6239561;23;20046;-88
2023/10/27 08:49:56;;;;;;;1.13;0.28;;;;;;;;;;6241509;23;20038;-88
2023/10/27 08:52:22;;;;;;;0.38;0.30;;;;;;;;;;6239704;23;20020;-89
2023/10/27 08:54:48;;;;;;;0.10;0.10;;;;;;;;;;6240307;23;20004;-88
2023/10/27 08:57:14;;;;;;;3.50;0.90;;;;;;;;;;6239815;23;20363;-89
2023/10/27 08:59:40;;;;;;;0.63;0.28;;;;;;;;;;6240010;23;20027;-89
2023/10/27 09:02:06;;;;;;;1.25;0.32;;;;;;;;;;6239371;23;20507;-89
2023/10/27 09:04:33;;;;;;;0.20;0.17;;;;;;;;;;6240318;23;20023;-89
2023/10/27 09:07:00;;;;;;;1.17;0.20;;;;;;;;;;6241572;23;20012;-89
2023/10/27 09:09:26;;;;;;;0.90;0.40;;;;;;;;;;6239994;23;20007;-88
2023/10/27 09:11:52;;;;;;;0.70;0.40;;;;;;;;;;6239725;23;20034;-89
2023/10/27 09:14:30;;;;;;;1.17;0.43;;;;;;;;;;6240229;23;20503;-89
2023/10/27 09:17:06;;;;;;;2.28;1.40;;;;;;;;;;6239791;23;20059;-89
2023/10/27 09:19:32;;;;;;;0.38;0.30;;;;;;;;;;6240341;23;20012;-88
2023/10/27 09:21:59;;;;;;;1.40;0.60;;;;;;;;;;6240671;23;20107;-89
2023/10/27 09:24:25;;;;;;;1.75;0.50;;;;;;;;;;6241399;23;20008;-88
2023/10/27 09:26:52;;;;;;;0.65;0.40;;;;;;;;;;6241578;23;20054;-89
2023/10/27 09:29:18;;;;;;;0.85;0.63;;;;;;;;;;6242003;23;20027;-89
2023/10/27 09:31:44;;;;;;;5.93;0.30;;;;;;;;;;6241763;23;20016;-89
2023/10/27 09:34:21;;;;;;;2.65;0.20;;;;;;;;;;6241947;23;20014;-89
2023/10/27 09:36:48;;;;;;;0.20;0.20;;;;;;;;;;6242129;23;20025;-89
2023/10/27 09:39:16;;;;;;;1.58;1.13;;;;;;;;;;6241205;23;20004;-89
2023/10/27 09:42:03;;;;;;;1.17;0.47;;;;;;;;;;6241638;23;20357;-90
2023/10/27 09:44:35;;;;;;;0.68;0.40;;;;;;;;;;6216202;23;20019;-88
2023/10/27 09:47:03;;;;;;;1.25;0.57;;;;;;;;;;6241321;23;20016;-89
2023/10/27 09:49:33;;;;;;;1.13;0.73;;;;;;;;;;6241471;23;20058;-89
2023/10/27 09:52:00;;;;;;;0.20;0.20;;;;;;;;;;6241026;23;20098;-89
2023/10/27 09:54:29;;;;;;;1.65;0.20;;;;;;;;;;6241330;23;20016;-89
2023/10/27 09:56:56;;;;;;;1.15;0.45;;;;;;;;;;6241193;23;20031;-88
2023/10/27 09:59:22;;;;;;;1.15;0.60;;;;;;;;;;6241658;23;20012;-89
2023/10/27 10:01:48;;;;;;;0.40;0.28;;;;;;;;;;6241401;23;20023;-89
2023/10/27 10:04:14;;;;;;;0.95;0.55;;;;;;;;;;6241068;23;20024;-89
2023/10/27 10:06:41;;;;;;;1.17;0.38;;;;;;;;;;6241427;23;20340;-89
2023/10/27 10:09:11;;;;;;;1.05;0.52;;;;;;;;;;6240883;23;20042;-89
2023/10/27 10:11:55;;;;;;;0.10;0.10;;;;;;;;;;6241031;23;20473;-89
2023/10/27 10:14:37;;;;;;;3.05;0.35;;;;;;;;;;6240846;23;20016;-89
2023/10/27 10:17:04;;;;;;;0.87;0.13;;;;;;;;;;6241290;23;20028;-89
2023/10/27 10:19:49;;;;;;;0.63;0.28;;;;;;;;;;6240676;23;20018;-91
2023/10/27 10:22:48;;;;;;;0.20;0.20;;;;;;;;;;6241075;23;20020;-90
2023/10/27 10:25:23;;;;;;;0.30;0.10;;;;;;;;;;6151089;23;20062;-89
2023/10/27 10:28:07;;;;;;;0.35;0.20;;;;;;;;;;6240831;23;20047;-90
2023/10/27 10:30:33;;;;;;;1.10;0.25;;;;;;;;;;6241113;23;20046;-89
2023/10/27 10:33:15;;;;;;;1.05;0.52;;;;;;;;;;6240583;23;20012;-89
2023/10/27 10:35:42;;;;;;;4.03;0.10;;;;;;;;;;6241349;23;20012;-90
2023/10/27 10:38:28;;;;;;;0.10;0.05;;;;;;;;;;6240991;23;20442;-91
2023/10/27 10:40:58;;;;;;;1.05;0.47;;;;;;;;;;6155883;23;20007;-89
2023/10/27 10:43:29;;;;;;;0.20;0.10;;;;;;;;;;6240919;23;20339;-90
2023/10/27 10:45:56;;;;;;;0.70;0.50;;;;;;;;;;6241769;23;20472;-90
2023/10/27 10:48:24;;;;;;;1.58;0.30;;;;;;;;;;6241654;23;20019;-91
2023/10/27 10:50:51;;;;;;;0.73;0.20;;;;;;;;;;6241588;23;20008;-90
2023/10/27 10:53:24;;;;;;;5.65;0.40;;;;;;;;;;6241004;23;20028;-92
2023/10/27 10:55:50;;;;;;;0.65;0.35;;;;;;;;;;6241742;23;20054;-92
2023/10/27 10:58:20;;;;;;;0.73;0.17;;;;;;;;;;6241929;23;20016;-90
2023/10/27 11:00:48;;;;;;;0.65;0.30;;;;;;;;;;6241084;23;20016;-90
2023/10/27 11:03:14;;;;;;;1.13;0.38;;;;;;;;;;6241093;23;20022;-92
2023/10/27 11:05:41;;;;;;;0.15;0.05;;;;;;;;;;6241277;23;20478;-91
2023/10/27 11:08:07;;;;;;;0.68;0.10;;;;;;;;;;6241899;23;20106;-92
2023/10/27 11:10:35;;;;;;;0.45;0.20;;;;;;;;;;6242380;23;20007;-91
2023/10/27 11:13:04;;;;;;;0.13;0.10;;;;;;;;;;6242387;23;20016;-91
2023/10/27 11:15:50;;;;;;;0.35;0.17;;;;;;;;;;6242155;23;20012;-90
2023/10/27 11:18:16;;;;;;;0.75;0.30;;;;;;;;;;6241214;23;20338;-90
2023/10/27 11:20:47;;;;;;;0.10;0.10;;;;;;;;;;6241200;23;20079;-92
2023/10/27 11:23:15;;;;;;;0.57;0.03;;;;;;;;;;6241098;23;20090;-91
2023/10/27 11:25:41;;;;;;;1.45;0.43;;;;;;;;;;6240746;23;20051;-92
2023/10/27 11:28:26;;;;;;;0.93;0.45;;;;;;;;;;6240804;23;20371;-89
2023/10/27 11:31:08;;;;;;;1.30;0.47;;;;;;;;;;6241700;23;20054;-91
2023/10/27 11:33:55;;;;;;;0.10;0.10;;;;;;;;;;6241757;23;20046;-92
2023/10/27 11:36:21;;;;;;;2.60;0.70;;;;;;;;;;6243544;23;20008;-90
2023/10/27 11:38:47;;;;;;;2.08;0.50;;;;;;;;;;6238351;23;20039;-90
2023/10/27 11:41:13;;;;;;;0.70;0.45;;;;;;;;;;6240111;23;20627;-91
2023/10/27 11:43:40;;;;;;;1.02;0.40;;;;;;;;;;6240798;23;20019;-89
2023/10/27 11:46:14;;;;;;;1.02;0.20;;;;;;;;;;6242176;23;20412;-92
2023/10/27 11:48:40;;;;;;;0.00;0.00;;;;;;;;;;6243232;23;20090;-93
2023/10/27 11:51:06;;;;;;;0.70;0.25;;;;;;;;;;6242550;23;20096;-91
2023/10/27 11:53:35;;;;;;;0.40;0.28;;;;;;;;;;6242300;23;20039;-91
2023/10/27 11:56:05;;;;;;;0.88;0.38;;;;;;;;;;6245898;23;20004;-90
2023/10/27 11:58:31;;;;;;;1.55;0.15;;;;;;;;;;6241730;23;20020;-89
2023/10/27 12:00:57;;;;;;;0.98;0.08;;;;;;;;;;6240555;23;20034;-90
2023/10/27 12:03:23;;;;;;;0.90;0.28;;;;;;;;;;6240550;23;20020;-90
2023/10/27 12:05:49;;;;;;;0.00;0.00;;;;;;;;;;6240097;23;20007;-92
2023/10/27 12:08:15;;;;;;;0.00;0.00;;;;;;;;;;6242398;23;20008;-89
2023/10/27 12:10:41;;;;;;;0.15;0.05;;;;;;;;;;6241122;23;20004;-89
2023/10/27 12:13:07;;;;;;;2.92;0.17;;;;;;;;;;6240230;23;20507;-90
2023/10/27 12:15:36;;;;;;;14.05;0.60;;;;;;;;;;6241372;23;20050;-88
2023/10/27 12:18:09;;;;;;;0.20;0.05;;;;;;;;;;6240558;23;20012;-89
2023/10/27 12:20:38;;;;;;;0.15;0.00;;;;;;;;;;6245529;23;20576;-89
2023/10/27 12:23:05;;;;;;;0.98;0.03;;;;;;;;;;6244814;23;20026;-90
2023/10/27 12:25:31;;;;;;;0.30;0.13;;;;;;;;;;6243117;23;20415;-89
2023/10/27 12:28:00;;;;;;;0.10;0.00;;;;;;;;;;6240168;23;20062;-90
2023/10/27 12:30:26;;;;;;;0.65;0.10;;;;;;;;;;6243445;23;20054;-86
2023/10/27 12:32:53;;;;;;;0.52;0.15;;;;;;;;;;6241972;23;20095;-90
2023/10/27 12:35:21;;;;;;;0.00;0.00;;;;;;;;;;6240988;23;20006;-88
2023/10/27 12:37:48;;;;;;;0.00;0.00;;;;;;;;;;6240714;23;20107;-90
2023/10/27 12:40:15;;;;;;;0.20;0.10;;;;;;;;;;6241381;23;20008;-91
2023/10/27 12:42:41;;;;;;;0.20;0.00;;;;;;;;;;6242458;23;20065;-90
2023/10/27 12:45:07;;;;;;;0.32;0.15;;;;;;;;;;6242405;23;20044;-89
2023/10/27 12:47:33;;;;;;;1.80;0.35;;;;;;;;;;6242540;23;20016;-89
2023/10/27 12:50:00;;;;;;;2.00;0.45;;;;;;;;;;6243665;23;20008;-89
2023/10/27 12:52:29;;;;;;;3.83;0.10;;;;;;;;;;6242905;23;20012;-88
2023/10/27 12:54:58;;;;;;;0.20;0.10;;;;;;;;;;6240622;23;20081;-88
2023/10/27 12:57:24;;;;;;;0.38;0.10;;;;;;;;;;6245146;23;20008;-90
2023/10/27 12:59:51;;;;;;;0.38;0.10;;;;;;;;;;6244979;23;20027;-90
2023/10/27 13:02:18;;;;;;;0.63;0.30;;;;;;;;;;6243221;23;20016;-90
2023/10/27 13:04:44;;;;;;;0.10;0.03;;;;;;;;;;6244043;23;20336;-87
2023/10/27 13:07:11;;;;;;;0.10;0.10;;;;;;;;;;6247705;23;20004;-87
2023/10/27 13:09:37;;;;;;;0.52;0.05;;;;;;;;;;6247820;23;20427;-87
2023/10/27 13:12:04;;;;;;;0.47;0.10;;;;;;;;;;6245648;23;20005;-89
2023/10/27 13:14:31;;;;;;;0.43;0.08;;;;;;;;;;6243724;23;20039;-89
2023/10/27 13:17:09;;;;;;;0.00;0.00;;;;;;;;;;6242797;23;20377;-90
2023/10/27 13:19:35;;;;;;;0.40;0.30;;;;;;;;;;6242870;23;20016;-90
2023/10/27 13:22:01;;;;;;;0.03;0.00;;;;;;;;;;6242837;23;20016;-90
2023/10/27 13:24:27;;;;;;;1.48;0.00;;;;;;;;;;6243121;23;20627;-89
2023/10/27 13:26:53;;;;;;;0.95;0.30;;;;;;;;;;6242105;23;20415;-90
2023/10/27 13:29:19;;;;;;;0.50;0.20;;;;;;;;;;6241816;23;20455;-89
2023/10/27 13:31:47;;;;;;;4.90;0.32;;;;;;;;;;6239701;23;20012;-88
2023/10/27 13:34:13;;;;;;;0.25;0.10;;;;;;;;;;6242137;23;20335;-90
2023/10/27 13:36:40;;;;;;;0.20;0.10;;;;;;;;;;6242515;23;20044;-90
2023/10/27 13:39:07;;;;;;;1.83;0.45;;;;;;;;;;6243181;23;20020;-89
2023/10/27 13:41:36;;;;;;;2.45;0.52;;;;;;;;;;6242226;23;20012;-88
2023/10/27 13:44:04;;;;;;;0.00;0.00;;;;;;;;;;6241831;23;20107;-88
2023/10/27 13:46:30;;;;;;;0.00;0.00;;;;;;;;;;6241665;23;20045;-89
2023/10/27 13:48:56;;;;;;;0.03;0.03;;;;;;;;;;6242167;23;20019;-88
2023/10/27 13:51:24;;;;;;;0.00;0.00;;;;;;;;;;6242522;23;20702;-89
2023/10/27 13:53:50;;;;;;;1.63;0.75;;;;;;;;;;6242262;23;20016;-89
2023/10/27 13:56:16;;;;;;;0.00;0.00;;;;;;;;;;6241867;23;20403;-89
2023/10/27 13:58:46;;;;;;;0.82;0.30;;;;;;;;;;6241813;23;20024;-89
2023/10/27 14:01:12;;;;;;;2.00;0.28;;;;;;;;;;6240727;23;20012;-90
2023/10/27 14:03:41;;;;;;;0.10;0.10;;;;;;;;;;6240552;23;20099;-90
2023/10/27 14:06:11;;;;;;;0.00;0.00;;;;;;;;;;6239091;23;20012;-89
2023/10/27 14:08:37;;;;;;;0.43;0.05;;;;;;;;;;6242427;23;20011;-88
2023/10/27 14:11:06;;;;;;;1.38;0.10;;;;;;;;;;6243668;23;20031;-87
2023/10/27 14:13:33;;;;;;;0.20;0.13;;;;;;;;;;6242689;23;20030;-89
2023/10/27 14:15:59;;;;;;;3.05;0.15;;;;;;;;;;6241056;23;20070;-87
2023/10/27 14:18:29;;;;;;;0.00;0.00;;;;;;;;;;6242497;23;20087;-87
2023/10/27 14:20:55;;;;;;;0.00;0.00;;;;;;;;;;6241355;23;20629;-88
2023/10/27 14:23:21;;;;;;;0.20;0.13;;;;;;;;;;6240608;23;20008;-87
2023/10/27 14:25:47;;;;;;;0.30;0.13;;;;;;;;;;6243179;23;20118;-86
2023/10/27 14:28:14;;;;;;;0.10;0.03;;;;;;;;;;6243417;23;20493;-88
2023/10/27 14:30:40;;;;;;;0.00;0.00;;;;;;;;;;6242672;23;20008;-87
2023/10/27 14:33:06;;;;;;;0.10;0.00;;;;;;;;;;6246846;23;20035;-86
2023/10/27 14:35:33;;;;;;;1.35;0.10;;;;;;;;;;6244941;23;20018;-87
2023/10/27 14:37:59;;;;;;;0.00;0.00;;;;;;;;;;6240614;23;20008;-89
2023/10/27 14:40:25;;;;;;;0.47;0.22;;;;;;;;;;6240721;23;20021;-88
2023/10/27 14:42:58;;;;;;;0.00;0.00;;;;;;;;;;6219535;23;20335;-87
2023/10/27 14:45:27;;;;;;;;;;;;;;;;;;6247234;23;20099;-86
2023/10/27 14:47:53;;;;;;;0.90;0.20;;;;;;;;;;6220811;23;20307;-87
2023/10/27 14:50:19;;;;;;;0.22;0.08;;;;;;;;;;6243494;23;20016;-87
2023/10/27 14:52:54;;;;;;;0.43;0.10;;;;;;;;;;6240597;23;20044;-87
2023/10/27 14:55:24;;;;;;;0.15;0.08;;;;;;;;;;6246529;23;20042;-86
2023/10/27 14:57:50;;;;;;;0.60;0.25;;;;;;;;;;6246547;23;20028;-86
2023/10/27 15:00:16;;;;;;;0.52;0.32;;;;;;;;;;6247939;23;20320;-85
2023/10/27 15:02:42;;;;;;;0.30;0.17;;;;;;;;;;6245449;23;20008;-85
2023/10/27 15:05:09;;;;;;;0.38;0.10;;;;;;;;;;6245156;23;20008;-86
2023/10/27 15:07:35;;;;;;;0.10;0.10;;;;;;;;;;6243744;23;20031;-87
2023/10/27 15:10:14;;;;;;;1.02;0.30;;;;;;;;;;6241301;23;20784;-87